Time;durP1;ratioP1;P1;durP2;ratioP2;P2;SDS_P1;SDS_P2;PMS_P1;PMS_P2;Temp;Humidity;BMP_temperature;BMP_pressure;BME280_temperature;BME280_humidity;BME280_pressure;Samples;Min_cycle;Max_cycle;Signal;HPM_P1;HPM_P2
2021/09/26 00:00:33;;;;;;;8.93;8.23;;;;;;;13.84;89.98;100288.28;10307267;28;20046;-75
2021/09/26 00:05:35;;;;;;;8.57;7.93;;;;;;;13.89;89.62;100288.94;10306477;28;20049;-75
2021/09/26 00:10:37;;;;;;;8.38;7.55;;;;;;;14.00;88.87;100291.16;10305156;28;20121;-76
2021/09/26 00:15:38;;;;;;;8.27;7.60;;;;;;;13.74;90.20;100288.72;10306922;28;20046;-74
2021/09/26 00:20:40;;;;;;;7.55;7.05;;;;;;;13.52;90.48;100289.59;10305219;28;20031;-76
2021/09/26 00:25:41;;;;;;;7.85;7.30;;;;;;;13.91;88.54;100298.63;10297875;28;20054;-75
2021/09/26 00:30:44;;;;;;;7.38;6.88;;;;;;;13.59;89.45;100290.19;10299412;28;20055;-74
2021/09/26 00:35:46;;;;;;;7.80;7.10;;;;;;;13.43;89.84;100289.97;10300377;28;20146;-76
2021/09/26 00:40:50;;;;;;;6.25;5.75;;;;;;;13.32;89.94;100276.31;10297782;28;20046;-74
2021/09/26 00:45:51;;;;;;;6.88;6.28;;;;;;;13.31;90.29;100287.78;10299607;28;20062;-75
2021/09/26 00:50:56;;;;;;;6.63;6.03;;;;;;;13.35;89.67;100290.25;10299036;28;20452;-75
2021/09/26 00:55:58;;;;;;;6.15;5.75;;;;;;;13.30;88.99;100292.22;10299469;28;20050;-75
2021/09/26 01:00:59;;;;;;;6.05;5.65;;;;;;;13.21;88.93;100286.41;10298819;28;20054;-75
2021/09/26 01:06:27;;;;;;;6.25;5.78;;;;;;;13.04;89.82;100287.03;10298848;28;20061;-74
2021/09/26 01:11:39;;;;;;;6.90;6.30;;;;;;;13.06;90.02;100285.22;10296985;28;20055;-74
2021/09/26 01:17:04;;;;;;;6.80;6.30;;;;;;;13.11;90.20;100281.47;10298514;28;20042;-75
2021/09/26 01:22:19;;;;;;;6.50;6.10;;;;;;;13.19;90.27;100291.72;10296408;28;20058;-75
2021/09/26 01:27:56;;;;;;;7.43;6.78;;;;;;;13.29;90.00;100292.28;10374012;23;20045;-70
2021/09/26 01:33:20;;;;;;;7.43;6.72;;;;;;;13.08;89.97;100293.94;10393922;28;20472;-70
2021/09/26 01:38:32;;;;;;;7.40;6.90;;;;;;;13.12;90.32;100303.44;10376917;28;20050;-70
2021/09/26 01:43:38;;;;;;;8.40;7.57;;;;;;;13.28;89.97;100298.47;10376493;28;20495;-70
2021/09/26 01:48:53;;;;;;;6.63;6.03;;;;;;;13.37;88.01;100291.06;10376150;28;20450;-70
2021/09/26 01:53:55;;;;;;;7.20;6.60;;;;;;;13.21;88.69;100284.63;10376237;28;20045;-70
2021/09/26 01:58:57;;;;;;;6.85;6.30;;;;;;;13.09;89.30;100285.09;10375872;28;20046;-70
2021/09/26 02:04:00;;;;;;;7.30;6.70;;;;;;;13.13;89.57;100287.53;10375418;28;20054;-70
2021/09/26 02:09:04;;;;;;;8.45;5.95;;;;;;;13.19;88.69;100291.72;10375553;28;20381;-70
2021/09/26 02:14:08;;;;;;;7.20;6.70;;;;;;;13.13;88.51;100282.28;10375178;28;20100;-70
2021/09/26 02:19:11;;;;;;;7.50;6.95;;;;;;;13.09;88.68;100290.34;10375371;28;20045;-70
2021/09/26 02:24:13;;;;;;;6.38;5.97;;;;;;;12.99;88.81;100289.84;10374966;28;20148;-70
2021/09/26 02:29:14;;;;;;;7.93;7.32;;;;;;;12.98;88.95;100292.56;10373403;28;20084;-70
2021/09/26 02:34:16;;;;;;;7.38;6.88;;;;;;;12.93;89.66;100289.25;10374338;28;20053;-70
2021/09/26 02:39:19;;;;;;;8.45;7.85;;;;;;;13.11;89.78;100293.81;10374288;28;20522;-70
2021/09/26 02:44:30;;;;;;;9.55;8.85;;;;;;;13.04;89.42;100292.31;10373430;28;20046;-70
2021/09/26 02:49:32;;;;;;;8.63;8.02;;;;;;;13.05;89.92;100286.13;10373860;28;20046;-70
2021/09/26 02:54:37;;;;;;;8.35;7.80;;;;;;;13.00;90.02;100293.34;10373894;28;20050;-70
2021/09/26 02:59:40;;;;;;;8.80;8.20;;;;;;;12.87;90.30;100291.16;10373587;28;20046;-70
2021/09/26 03:04:46;;;;;;;9.07;8.48;;;;;;;13.02;90.00;100289.75;10373892;28;20045;-70
2021/09/26 03:09:47;;;;;;;7.82;7.32;;;;;;;12.91;89.91;100305.09;10374438;28;20088;-71
2021/09/26 03:14:50;;;;;;;8.63;7.97;;;;;;;12.96;89.88;100304.94;10373107;28;20050;-70
2021/09/26 03:19:51;;;;;;;8.35;7.85;;;;;;;13.02;88.92;100292.38;10373503;28;20042;-70
2021/09/26 03:24:53;;;;;;;8.10;7.40;;;;;;;12.80;89.41;100299.38;10372893;28;20042;-70
2021/09/26 03:29:54;;;;;;;8.25;7.57;;;;;;;12.77;89.24;100296.84;10373647;28;20042;-70
2021/09/26 03:34:56;;;;;;;7.28;6.78;;;;;;;13.04;86.80;100287.91;10355896;28;20050;-70
2021/09/26 03:39:59;;;;;;;7.40;6.90;;;;;;;12.75;87.61;100289.00;10372419;28;20049;-70
2021/09/26 03:45:01;;;;;;;7.47;6.95;;;;;;;12.45;89.29;100300.66;10372710;28;20042;-70
2021/09/26 03:50:05;;;;;;;7.75;7.25;;;;;;;12.52;88.56;100297.72;10372867;28;20058;-70
2021/09/26 03:55:09;;;;;;;7.82;6.85;;;;;;;12.34;88.33;100304.50;10371319;28;20084;-70
2021/09/26 04:00:16;;;;;;;7.60;7.13;;;;;;;12.09;89.32;100307.13;10378740;28;20465;-70
2021/09/26 04:05:18;;;;;;;8.73;7.95;;;;;;;12.05;90.09;100308.16;10381222;28;20082;-70
2021/09/26 04:10:20;;;;;;;8.35;7.80;;;;;;;11.97;90.96;100307.53;10380118;28;20121;-70
2021/09/26 04:15:21;;;;;;;9.57;8.65;;;;;;;12.03;91.37;100296.78;10379500;28;20054;-70
2021/09/26 04:20:24;;;;;;;10.68;9.70;;;;;;;12.11;91.38;100288.63;10379645;28;20076;-70
2021/09/26 04:25:26;;;;;;;10.50;9.57;;;;;;;12.24;92.09;100291.69;10379649;28;20092;-70
2021/09/26 04:30:27;;;;;;;10.02;9.32;;;;;;;12.38;92.40;100290.28;10378942;28;20042;-70
2021/09/26 04:35:29;;;;;;;10.23;9.38;;;;;;;12.44;92.53;100288.34;10378918;28;20081;-71
2021/09/26 04:40:31;;;;;;;9.77;9.15;;;;;;;12.54;92.16;100300.31;10361072;28;20066;-70
2021/09/26 04:45:33;;;;;;;10.50;9.80;;;;;;;12.59;92.11;100296.59;10379279;28;20042;-70
2021/09/26 04:50:34;;;;;;;9.98;9.38;;;;;;;12.62;91.64;100290.38;10378245;28;20447;-70
2021/09/26 04:55:36;;;;;;;10.55;9.70;;;;;;;12.64;91.71;100296.44;10360870;28;20069;-70
2021/09/26 05:00:38;;;;;;;9.85;9.20;;;;;;;12.72;91.40;100286.47;10377679;28;20096;-70
2021/09/26 05:05:40;;;;;;;10.43;9.73;;;;;;;12.80;91.34;100288.84;10360133;28;20050;-70
2021/09/26 05:10:42;;;;;;;10.05;9.35;;;;;;;13.05;89.95;100283.47;10377062;28;20049;-71
2021/09/26 05:15:43;;;;;;;9.57;8.93;;;;;;;13.29;88.34;100294.94;10378397;28;20386;-70
2021/09/26 05:20:45;;;;;;;9.52;8.82;;;;;;;13.24;88.49;100297.75;10362294;28;20046;-70
2021/09/26 05:25:47;;;;;;;8.55;8.02;;;;;;;13.38;87.73;100297.22;10377864;28;20054;-70
2021/09/26 05:30:48;;;;;;;9.77;9.07;;;;;;;13.30;88.32;100299.28;10378413;28;20084;-70
2021/09/26 05:35:51;;;;;;;8.80;8.20;;;;;;;13.47;87.12;100285.41;10377227;28;20056;-70
2021/09/26 05:40:52;;;;;;;8.90;8.30;;;;;;;13.48;86.65;100281.84;10376923;28;20076;-70
2021/09/26 05:45:54;;;;;;;9.25;8.50;;;;;;;13.51;86.76;100285.25;10377066;28;20049;-70
2021/09/26 05:50:56;;;;;;;9.18;8.45;;;;;;;13.45;87.09;100276.69;10376729;28;20057;-70
2021/09/26 05:55:57;;;;;;;8.85;8.35;;;;;;;13.49;87.06;100279.13;10377901;28;20045;-70
2021/09/26 06:00:59;;;;;;;7.50;7.00;;;;;;;13.68;86.09;100281.03;10376276;28;20519;-70
2021/09/26 06:06:00;;;;;;;10.93;10.15;;;;;;;13.91;84.83;100291.53;10376598;28;20096;-70
2021/09/26 06:11:03;;;;;;;8.65;8.05;;;;;;;13.77;85.83;100294.75;10375859;28;20046;-70
2021/09/26 06:16:05;;;;;;;9.13;8.52;;;;;;;13.94;85.32;100298.47;10376358;28;20057;-70
2021/09/26 06:21:06;;;;;;;9.20;8.50;;;;;;;14.03;84.64;100291.03;10375295;28;20045;-70
2021/09/26 06:26:08;;;;;;;9.23;8.63;;;;;;;14.00;85.69;100275.31;10375529;28;20049;-70
2021/09/26 06:31:10;;;;;;;8.82;8.23;;;;;;;14.18;84.78;100265.72;10376877;28;20042;-70
2021/09/26 06:36:12;;;;;;;7.72;7.22;;;;;;;14.54;83.26;100275.66;10357560;28;20478;-70
2021/09/26 06:41:15;;;;;;;8.40;7.75;;;;;;;14.70;82.44;100270.53;10375778;28;20104;-69
2021/09/26 06:46:17;;;;;;;7.30;6.80;;;;;;;14.89;81.75;100277.59;10357634;28;20076;-70
2021/09/26 06:51:19;;;;;;;9.98;9.27;;;;;;;15.14;81.18;100279.13;10357473;28;20468;-70
2021/09/26 06:56:22;;;;;;;7.68;7.07;;;;;;;15.38;79.70;100279.72;10378331;28;20101;-70
2021/09/26 07:01:23;;;;;;;7.75;7.25;;;;;;;15.54;79.33;100280.72;10378943;28;20124;-70
2021/09/26 07:06:25;;;;;;;6.90;6.40;;;;;;;15.67;78.79;100270.41;10378915;28;20411;-70
2021/09/26 07:11:27;;;;;;;7.38;6.72;;;;;;;15.83;78.41;100279.31;10378026;28;20407;-70
2021/09/26 07:16:29;;;;;;;7.05;6.55;;;;;;;16.00;78.09;100274.97;10377164;28;20108;-70
2021/09/26 07:21:31;;;;;;;6.22;5.63;;;;;;;16.34;75.90;100277.63;10358301;28;20042;-70
2021/09/26 07:26:33;;;;;;;6.18;5.68;;;;;;;16.10;78.14;100279.72;10395162;22;21815;-73
2021/09/26 07:31:35;;;;;;;6.43;6.03;;;;;;;16.37;76.14;100280.09;10402027;28;20095;-73
2021/09/26 07:36:37;;;;;;;5.45;5.05;;;;;;;16.51;74.67;100290.03;10424586;28;20111;-74
2021/09/26 07:41:38;;;;;;;5.53;5.13;;;;;;;16.81;74.39;100292.88;10425028;28;20034;-74
2021/09/26 07:46:43;;;;;;;5.50;5.10;;;;;;;17.01;73.66;100288.28;10424559;28;20049;-74
2021/09/26 07:51:45;;;;;;;5.85;5.45;;;;;;;17.15;73.14;100301.69;10424989;28;20045;-74
2021/09/26 07:56:47;;;;;;;5.53;5.13;;;;;;;17.29;72.81;100306.22;10424862;28;20067;-74
2021/09/26 08:01:49;;;;;;;5.72;5.32;;;;;;;17.53;71.39;100296.91;10423876;28;20052;-73
2021/09/26 08:06:50;;;;;;;5.07;4.68;;;;;;;17.78;71.67;100292.88;10389807;28;20064;-72
2021/09/26 08:11:52;;;;;;;5.78;5.38;;;;;;;17.98;70.44;100292.56;10405906;28;20045;-74
2021/09/26 08:16:54;;;;;;;6.00;5.28;;;;;;;18.08;70.22;100282.25;10405613;28;20057;-72
2021/09/26 08:21:56;;;;;;;5.03;4.70;;;;;;;18.09;70.20;100271.50;10423682;28;20126;-73
2021/09/26 08:26:57;;;;;;;5.40;4.93;;;;;;;18.52;68.57;100270.75;10423634;28;20037;-72
2021/09/26 08:31:59;;;;;;;4.93;4.53;;;;;;;18.75;68.12;100272.03;10423222;28;20045;-73
2021/09/26 08:37:01;;;;;;;4.90;4.50;;;;;;;19.00;67.58;100284.69;10422528;28;20188;-72
2021/09/26 08:42:03;;;;;;;4.00;3.72;;;;;;;18.91;69.80;100278.13;10412529;28;20403;-73
2021/09/26 08:47:05;;;;;;;4.75;4.32;;;;;;;19.42;66.52;100276.59;10365661;28;20054;-73
2021/09/26 08:52:08;;;;;;;4.82;4.43;;;;;;;19.35;68.06;100269.97;10380692;28;20042;-74
2021/09/26 08:57:10;;;;;;;4.03;3.72;;;;;;;19.40;68.63;100272.34;10380219;28;20046;-73
2021/09/26 09:02:11;;;;;;;4.32;4.03;;;;;;;19.90;66.58;100279.72;10383736;28;20042;-73
2021/09/26 09:07:13;;;;;;;4.38;4.07;;;;;;;20.16;65.63;100275.28;10380607;28;20050;-73
2021/09/26 09:12:15;;;;;;;4.60;4.30;;;;;;;20.59;62.54;100268.88;10379826;28;20092;-73
2021/09/26 09:17:37;;;;;;;4.13;3.72;;;;;;;20.99;62.09;100264.25;10361585;28;20045;-73
2021/09/26 09:22:41;;;;;;;3.55;3.33;;;;;;;21.23;61.23;100258.94;10380138;28;20042;-73
2021/09/26 09:27:42;;;;;;;3.92;3.63;;;;;;;21.61;61.19;100252.63;10379327;28;20054;-74
2021/09/26 09:32:55;;;;;;;3.47;3.03;;;;;;;21.85;59.42;100247.25;10379439;28;20038;-74
2021/09/26 09:37:56;;;;;;;2.95;2.67;;;;;;;22.21;60.32;100235.59;10378867;28;20041;-73
2021/09/26 09:42:58;;;;;;;3.00;2.65;;;;;;;22.50;58.76;100232.50;10378155;28;20053;-72
2021/09/26 09:48:02;;;;;;;3.35;2.80;;;;;;;22.72;56.92;100231.66;10412885;28;20041;-75
2021/09/26 09:53:04;;;;;;;4.57;3.10;;;;;;;23.08;57.08;100228.75;10379307;28;20050;-73
2021/09/26 09:58:16;;;;;;;3.65;3.38;;;;;;;23.57;55.51;100224.72;10360057;28;20042;-72
2021/09/26 10:03:46;;;;;;;3.85;3.42;;;;;;;23.58;52.39;100223.72;10378963;28;20049;-72
2021/09/26 10:08:49;;;;;;;3.97;3.67;;;;;;;23.68;52.42;100223.84;10359961;28;20096;-73
2021/09/26 10:13:59;;;;;;;2.70;2.47;;;;;;;24.20;52.97;100226.66;10361149;28;20132;-73
2021/09/26 10:19:00;;;;;;;2.55;2.30;;;;;;;24.78;48.31;100219.78;10378163;28;20068;-74
2021/09/26 10:24:02;;;;;;;2.63;2.42;;;;;;;24.81;48.20;100210.59;10378130;28;20227;-72
2021/09/26 10:29:06;;;;;;;14.02;13.23;;;;;;;25.32;49.04;100212.31;10376732;28;20053;-74
2021/09/26 10:34:09;;;;;;;7.28;4.45;;;;;;;25.33;46.62;100208.66;10417536;28;20044;-71
2021/09/26 10:39:13;;;;;;;2.13;1.98;;;;;;;25.65;45.66;100200.31;10382047;28;20047;-73
2021/09/26 10:44:22;;;;;;;2.90;2.70;;;;;;;25.43;47.37;100201.44;10360307;28;20046;-74
2021/09/26 10:49:37;;;;;;;2.67;2.47;;;;;;;25.59;48.76;100215.22;10360683;28;20077;-72
2021/09/26 10:54:40;;;;;;;3.58;3.25;;;;;;;25.57;47.52;100200.19;10405943;28;20053;-72
2021/09/26 10:59:44;;;;;;;3.28;3.05;;;;;;;25.87;48.59;100205.44;10417196;28;20506;-72
2021/09/26 11:04:46;;;;;;;3.67;3.38;;;;;;;25.61;47.02;100202.44;10396860;28;20046;-73
2021/09/26 11:09:54;;;;;;;3.28;2.70;;;;;;;25.60;47.79;100192.66;10376474;28;20050;-73
2021/09/26 11:15:01;;;;;;;2.90;2.50;;;;;;;25.92;46.00;100191.56;10358757;28;20129;-72
2021/09/26 11:20:03;;;;;;;2.58;2.38;;;;;;;26.11;46.90;100191.50;10375781;28;20049;-73
2021/09/26 11:25:05;;;;;;;2.83;2.63;;;;;;;25.91;46.68;100197.94;10375605;28;20100;-73
2021/09/26 11:30:10;;;;;;;2.97;2.65;;;;;;;25.71;46.68;100198.91;10375156;28;20038;-73
2021/09/26 11:35:24;;;;;;;3.58;2.65;;;;;;;25.74;47.36;100193.25;10375897;28;20088;-71
2021/09/26 11:40:47;;;;;;;3.45;2.25;;;;;;;25.51;46.31;100184.59;10376243;28;20042;-73
2021/09/26 11:45:50;;;;;;;3.75;2.72;;;;;;;25.11;46.95;100183.69;10374995;28;20404;-72
2021/09/26 11:50:54;;;;;;;3.15;2.88;;;;;;;24.81;48.07;100172.97;10357486;28;20413;-73
2021/09/26 11:55:56;;;;;;;3.10;2.90;;;;;;;24.82;48.41;100164.75;10374840;28;20046;-72
2021/09/26 12:00:58;;;;;;;3.05;2.70;;;;;;;24.74;49.06;100167.28;10357337;28;20427;-73
2021/09/26 12:06:01;;;;;;;3.55;2.10;;;;;;;24.95;46.26;100159.13;10375410;28;20427;-72
2021/09/26 12:11:07;;;;;;;3.78;2.40;;;;;;;24.78;46.79;100163.31;10373867;28;20050;-72
2021/09/26 12:16:09;;;;;;;3.33;3.13;;;;;;;24.89;45.73;100159.69;10356803;28;20045;-73
2021/09/26 12:21:11;;;;;;;2.80;1.80;;;;;;;25.07;45.12;100160.72;10362632;28;20045;-72
2021/09/26 12:26:13;;;;;;;2.47;2.00;;;;;;;25.21;45.34;100161.34;10363705;28;20045;-72
2021/09/26 12:31:14;;;;;;;2.10;1.90;;;;;;;25.24;45.82;100169.16;10382058;28;20530;-72
2021/09/26 12:36:17;;;;;;;2.70;2.30;;;;;;;25.58;44.20;100158.78;10381679;28;20054;-73
2021/09/26 12:41:18;;;;;;;2.00;1.80;;;;;;;25.59;44.17;100150.59;10381279;28;20038;-72
2021/09/26 12:46:23;;;;;;;1.90;1.80;;;;;;;25.75;44.38;100146.47;10380127;28;20045;-72
2021/09/26 12:51:56;;;;;;;2.53;2.00;;;;;;;25.61;43.25;100145.91;10380992;28;20049;-71
2021/09/26 12:57:00;;;;;;;2.20;2.00;;;;;;;25.86;43.74;100139.13;10375356;28;20066;-73
2021/09/26 13:02:15;;;;;;;2.20;1.60;;;;;;;26.13;41.86;100135.66;10381401;28;20131;-72
2021/09/26 13:07:25;;;;;;;2.30;2.10;;;;;;;26.06;42.26;100121.06;10380393;28;20041;-72
2021/09/26 13:12:39;;;;;;;2.28;1.90;;;;;;;26.02;41.98;100116.97;10379636;28;20572;-72
2021/09/26 13:17:44;;;;;;;5.28;2.00;;;;;;;25.81;43.81;100127.06;10379663;28;20188;-72
2021/09/26 13:22:47;;;;;;;3.03;1.65;;;;;;;25.70;43.45;100119.13;10379433;28;20376;-73
2021/09/26 13:28:06;;;;;;;2.85;2.42;;;;;;;25.67;42.89;100123.78;10378939;28;20583;-73
2021/09/26 13:33:34;;;;;;;2.90;2.10;;;;;;;25.60;43.39;100125.38;10379202;28;20385;-73
2021/09/26 13:38:47;;;;;;;3.35;1.90;;;;;;;25.66;42.69;100122.09;10377978;28;20046;-73
2021/09/26 13:43:59;;;;;;;2.50;2.30;;;;;;;25.53;44.04;100118.84;10360783;28;20050;-73
2021/09/26 13:49:01;;;;;;;1.80;1.60;;;;;;;25.43;43.67;100128.78;10378166;28;20042;-72
2021/09/26 13:54:03;;;;;;;1.90;1.80;;;;;;;25.47;42.78;100116.75;10377590;28;20049;-72
2021/09/26 13:59:05;;;;;;;3.05;2.25;;;;;;;25.38;44.79;100114.91;10377432;28;20112;-72
2021/09/26 14:04:07;;;;;;;3.83;2.28;;;;;;;25.14;45.06;100118.00;10359567;28;20049;-72
2021/09/26 14:09:09;;;;;;;2.33;1.80;;;;;;;25.31;44.69;100119.16;10376926;28;20510;-72
2021/09/26 14:14:10;;;;;;;5.18;4.88;;;;;;;25.21;44.47;100119.16;10377150;28;20415;-72
2021/09/26 14:19:13;;;;;;;2.20;2.10;;;;;;;25.05;45.41;100111.59;10377225;28;20081;-74
2021/09/26 14:24:15;;;;;;;4.43;2.30;;;;;;;25.24;45.18;100113.50;10385333;28;20037;-75
2021/09/26 14:29:17;;;;;;;2.97;2.60;;;;;;;25.14;46.40;100107.22;10393820;28;20072;-74
2021/09/26 14:34:22;;;;;;;3.28;3.08;;;;;;;25.07;46.82;100109.63;10376948;28;20045;-74
2021/09/26 14:39:23;;;;;;;9.68;9.07;;;;;;;25.12;46.86;100102.00;10391788;28;20511;-73
2021/09/26 14:44:25;;;;;;;14.57;13.48;;;;;;;25.02;47.44;100105.66;10415744;28;20411;-72
2021/09/26 14:49:27;;;;;;;3.17;2.97;;;;;;;24.67;47.80;100102.47;10399485;28;20056;-72
2021/09/26 14:54:29;;;;;;;3.58;3.28;;;;;;;24.54;48.56;100115.31;10415975;28;20049;-72
2021/09/26 14:59:30;;;;;;;12.52;11.55;;;;;;;24.47;49.28;100114.13;10416737;28;20100;-72
2021/09/26 15:04:32;;;;;;;3.80;3.50;;;;;;;24.21;49.25;100112.84;10398525;28;20084;-72
2021/09/26 15:09:33;;;;;;;4.38;4.07;;;;;;;24.32;49.32;100112.78;10416751;28;20053;-72
2021/09/26 15:14:35;;;;;;;2.67;2.47;;;;;;;24.12;49.12;100106.44;10415912;28;20062;-73
2021/09/26 15:19:38;;;;;;;3.53;3.22;;;;;;;23.99;50.05;100105.81;10397579;28;20156;-73
2021/09/26 15:24:40;;;;;;;3.67;3.38;;;;;;;23.88;50.02;100109.44;10415279;28;20041;-72
2021/09/26 15:29:42;;;;;;;6.50;3.83;;;;;;;23.77;51.51;100104.13;10407477;28;20050;-72
2021/09/26 15:34:44;;;;;;;4.10;3.80;;;;;;;23.66;51.88;100097.84;10374295;28;20057;-71
2021/09/26 15:39:45;;;;;;;4.47;3.22;;;;;;;23.57;51.61;100101.28;10339397;28;20050;-72
2021/09/26 15:44:52;;;;;;;4.35;3.95;;;;;;;23.29;51.87;100101.94;10370310;28;20038;-72
2021/09/26 15:49:53;;;;;;;4.05;3.75;;;;;;;22.94;53.00;100103.03;10371477;28;20050;-72
2021/09/26 15:54:55;;;;;;;4.03;3.72;;;;;;;22.75;53.81;100094.72;10379160;28;20045;-72
2021/09/26 16:00:00;;;;;;;5.28;4.78;;;;;;;22.64;53.86;100091.09;10380841;28;20049;-72
2021/09/26 16:05:02;;;;;;;10.13;6.80;;;;;;;22.54;54.37;100086.63;10382552;28;20108;-73
2021/09/26 16:10:07;;;;;;;8.85;8.15;;;;;;;22.42;53.69;100085.78;10382717;28;20085;-71
2021/09/26 16:15:14;;;;;;;4.68;4.28;;;;;;;22.23;54.38;100075.69;10383099;28;20049;-72
2021/09/26 16:20:21;;;;;;;4.85;4.45;;;;;;;22.08;54.33;100080.38;10398883;28;20518;-72
2021/09/26 16:25:27;;;;;;;5.70;5.18;;;;;;;21.91;55.08;100076.38;10407691;28;20045;-72
2021/09/26 16:30:30;;;;;;;4.25;3.85;;;;;;;21.76;55.01;100080.25;10422457;28;20092;-72
2021/09/26 16:35:32;;;;;;;4.28;3.85;;;;;;;21.56;56.30;100070.22;10403442;28;20120;-72
2021/09/26 16:40:34;;;;;;;5.65;5.15;;;;;;;21.58;56.63;100077.16;10420560;28;20499;-72
2021/09/26 16:45:38;;;;;;;5.07;4.55;;;;;;;21.22;57.65;100070.09;10420639;28;20037;-72
2021/09/26 16:50:43;;;;;;;5.28;4.97;;;;;;;21.07;58.13;100065.88;10396120;28;20145;-73
2021/09/26 16:55:46;;;;;;;4.95;4.65;;;;;;;20.87;59.27;100068.22;10379628;28;20046;-73
2021/09/26 17:00:48;;;;;;;5.90;5.50;;;;;;;20.81;60.01;100075.88;10360945;28;20069;-72
2021/09/26 17:05:52;;;;;;;6.55;6.07;;;;;;;20.86;60.03;100082.56;10379300;28;20045;-72
2021/09/26 17:10:54;;;;;;;7.60;6.47;;;;;;;20.71;60.66;100088.16;10361173;28;20129;-72
2021/09/26 17:15:56;;;;;;;6.68;6.18;;;;;;;20.45;61.59;100093.53;10377898;28;20562;-72
2021/09/26 17:20:58;;;;;;;7.13;6.53;;;;;;;20.19;62.79;100094.53;10360997;28;20092;-72
2021/09/26 17:26:00;;;;;;;8.27;7.68;;;;;;;20.19;63.43;100111.44;10402541;28;20050;-73
2021/09/26 17:31:03;;;;;;;9.60;8.85;;;;;;;19.86;64.31;100118.16;10378020;28;20078;-73
2021/09/26 17:36:07;;;;;;;8.65;8.05;;;;;;;19.69;64.92;100130.94;10377178;28;20116;-73
2021/09/26 17:41:09;;;;;;;9.50;8.70;;;;;;;19.60;65.82;100127.94;10377174;28;20052;-72
2021/09/26 17:46:15;;;;;;;8.68;8.02;;;;;;;19.45;66.27;100122.75;10377170;28;20107;-72
2021/09/26 17:51:18;;;;;;;8.75;8.05;;;;;;;19.26;67.35;100125.81;10377445;28;20052;-73
2021/09/26 17:56:21;;;;;;;8.77;8.18;;;;;;;19.11;68.23;100124.97;10377465;28;20516;-73
2021/09/26 18:01:22;;;;;;;8.25;7.65;;;;;;;19.14;68.30;100122.13;10377280;28;20088;-72
2021/09/26 18:06:28;;;;;;;7.60;7.07;;;;;;;19.14;68.34;100128.31;10359991;28;20054;-74
2021/09/26 18:11:29;;;;;;;8.13;7.63;;;;;;;19.13;68.71;100128.41;10376713;28;20502;-74
2021/09/26 18:16:31;;;;;;;9.00;8.43;;;;;;;19.12;68.62;100132.00;10376450;28;20049;-73
2021/09/26 18:21:35;;;;;;;7.35;6.80;;;;;;;19.11;68.25;100128.50;10358354;28;20488;-73
2021/09/26 18:26:37;;;;;;;9.38;8.45;;;;;;;19.17;69.27;100137.91;10358272;28;20056;-73
2021/09/26 18:31:38;;;;;;;8.75;8.25;;;;;;;19.04;69.39;100142.34;10376269;28;20093;-73
2021/09/26 18:36:41;;;;;;;9.75;9.15;;;;;;;18.99;69.36;100139.97;10358685;28;20508;-73
2021/09/26 18:41:44;;;;;;;8.48;7.97;;;;;;;18.95;69.93;100137.59;10375512;28;20049;-73
2021/09/26 18:46:47;;;;;;;8.48;7.88;;;;;;;19.04;69.14;100131.69;10376295;28;20077;-74
2021/09/26 18:51:48;;;;;;;7.93;7.35;;;;;;;18.99;69.38;100129.31;10358324;28;20399;-73
2021/09/26 18:56:50;;;;;;;8.25;7.65;;;;;;;18.91;69.59;100131.63;10357634;28;20138;-73
2021/09/26 19:01:52;;;;;;;7.55;6.97;;;;;;;18.93;69.39;100128.84;10375962;28;20447;-74
2021/09/26 19:06:57;;;;;;;7.57;6.97;;;;;;;18.83;69.66;100129.44;10375327;28;20073;-74
2021/09/26 19:12:00;;;;;;;7.60;7.07;;;;;;;18.92;70.08;100119.16;10374814;28;20145;-73
2021/09/26 19:17:02;;;;;;;7.35;6.85;;;;;;;18.83;70.18;100128.59;10357438;28;20046;-73
2021/09/26 19:22:07;;;;;;;7.00;6.50;;;;;;;18.76;70.08;100130.78;10357215;28;20496;-74
2021/09/26 19:27:47;;;;;;;8.68;7.80;;;;;;;18.66;70.57;100127.81;10360732;28;20062;-74
2021/09/26 19:32:49;;;;;;;7.25;6.75;;;;;;;18.65;70.37;100126.13;10300464;28;20046;-71
2021/09/26 19:37:51;;;;;;;7.28;6.78;;;;;;;18.81;69.63;100127.81;10301372;28;20109;-70
2021/09/26 19:42:54;;;;;;;7.13;6.72;;;;;;;18.78;69.46;100131.56;10300169;28;20484;-70
2021/09/26 19:47:56;;;;;;;6.88;6.40;;;;;;;18.70;69.67;100131.19;10301090;28;20058;-72
2021/09/26 19:52:58;;;;;;;7.35;6.75;;;;;;;18.79;68.99;100132.41;10298975;28;20042;-71
2021/09/26 19:58:00;;;;;;;7.72;7.00;;;;;;;18.52;69.94;100130.53;10300063;28;20054;-71
2021/09/26 20:03:02;;;;;;;7.43;7.03;;;;;;;18.40;70.42;100132.13;10300187;28;20046;-72
2021/09/26 20:08:06;;;;;;;6.68;6.28;;;;;;;18.34;70.79;100126.34;10299794;28;20044;-71
2021/09/26 20:13:11;;;;;;;6.38;5.88;;;;;;;18.21;71.27;100126.25;10299105;28;20543;-71
2021/09/26 20:18:12;;;;;;;7.30;6.80;;;;;;;18.55;70.66;100125.00;10299668;28;20054;-71
2021/09/26 20:23:14;;;;;;;7.90;7.18;;;;;;;18.37;70.92;100124.38;10301399;28;20067;-72
2021/09/26 20:28:16;;;;;;;9.35;7.03;;;;;;;18.35;70.87;100120.94;10301883;28;20051;-70
2021/09/26 20:33:18;;;;;;;7.72;7.22;;;;;;;18.40;71.01;100128.63;10299047;28;20046;-70
2021/09/26 20:38:21;;;;;;;6.85;6.40;;;;;;;18.27;71.73;100130.34;10298259;28;20493;-71
2021/09/26 20:43:23;;;;;;;7.43;6.93;;;;;;;18.05;72.39;100139.63;10300162;28;20457;-72
2021/09/26 20:48:25;;;;;;;6.88;6.40;;;;;;;17.84;73.73;100127.63;10298145;28;20098;-72
2021/09/26 20:53:27;;;;;;;7.07;6.57;;;;;;;17.76;73.78;100120.13;10297806;28;20050;-72
2021/09/26 20:58:29;;;;;;;9.38;7.00;;;;;;;17.79;73.76;100119.94;10298081;28;20050;-72
2021/09/26 21:03:33;;;;;;;7.50;6.90;;;;;;;17.72;74.66;100115.91;10297402;28;20452;-72
2021/09/26 21:08:35;;;;;;;7.43;6.82;;;;;;;18.00;74.59;100123.09;10298361;28;20057;-72
2021/09/26 21:13:36;;;;;;;7.75;7.25;;;;;;;17.70;76.21;100117.78;10297171;28;20085;-72
2021/09/26 21:18:38;;;;;;;7.53;7.03;;;;;;;17.61;76.84;100121.00;10297945;28;20070;-70
2021/09/26 21:23:40;;;;;;;8.50;7.53;;;;;;;17.71;76.58;100113.34;10296566;28;20039;-70
2021/09/26 21:28:42;;;;;;;8.52;7.93;;;;;;;17.66;75.97;100124.25;10295245;28;20054;-70
2021/09/26 21:33:43;;;;;;;8.20;7.70;;;;;;;17.29;77.12;100126.41;10296401;28;20047;-71
2021/09/26 21:38:45;;;;;;;9.07;8.38;;;;;;;17.10;78.26;100112.50;10296178;28;20089;-70
2021/09/26 21:43:46;;;;;;;8.50;7.90;;;;;;;17.10;78.83;100110.69;10294730;28;20043;-70
2021/09/26 21:48:49;;;;;;;8.48;7.88;;;;;;;17.47;78.47;100105.03;10297065;28;20086;-71
2021/09/26 21:53:51;;;;;;;9.00;8.15;;;;;;;17.35;79.04;100106.59;10295592;28;20043;-71
2021/09/26 21:58:52;;;;;;;7.60;7.10;;;;;;;17.37;78.31;100108.22;10295488;28;20527;-71
2021/09/26 22:03:54;;;;;;;8.70;7.97;;;;;;;17.36;78.34;100106.53;10295443;28;20042;-71
2021/09/26 22:08:55;;;;;;;10.07;9.48;;;;;;;17.22;78.72;100097.63;10295273;28;20101;-71
2021/09/26 22:13:58;;;;;;;9.52;8.93;;;;;;;17.29;78.28;100101.66;10294832;28;20444;-71
2021/09/26 22:19:00;;;;;;;8.85;8.05;;;;;;;17.58;76.51;100111.44;10294739;28;20082;-71
2021/09/26 22:24:06;;;;;;;8.38;7.88;;;;;;;17.63;76.39;100106.69;10295655;28;20098;-71
2021/09/26 22:29:18;;;;;;;;;;;;;;;17.53;76.66;100104.66;10294070;28;20409;-71
2021/09/26 22:34:21;;;;;;;7.40;6.90;;;;;;;17.40;77.56;100100.09;10294060;28;20377;-71
2021/09/26 22:39:23;;;;;;;8.05;7.55;;;;;;;17.49;78.07;100096.03;10294176;28;20417;-71
2021/09/26 22:44:24;;;;;;;7.95;7.38;;;;;;;17.54;79.31;100098.41;10292648;28;20046;-72
2021/09/26 22:49:26;;;;;;;7.68;7.18;;;;;;;17.52;79.35;100101.16;10293946;28;20126;-71
2021/09/26 22:54:28;;;;;;;8.77;8.07;;;;;;;17.51;80.64;100102.09;10294109;28;20481;-71
2021/09/26 22:59:29;;;;;;;7.90;7.40;;;;;;;17.40;80.63;100105.41;10293926;28;20547;-71
2021/09/26 23:04:31;;;;;;;8.38;7.78;;;;;;;17.28;81.67;100099.94;10292625;28;20047;-71
2021/09/26 23:09:33;;;;;;;8.52;7.78;;;;;;;17.12;82.83;100097.31;10292105;28;20062;-71
2021/09/26 23:14:34;;;;;;;8.57;7.80;;;;;;;17.27;82.04;100107.06;10293189;28;20051;-71